Time;durP1;ratioP1;P1;durP2;ratioP2;P2;SDS_P1;SDS_P2;PMS_P1;PMS_P2;Temp;Humidity;BMP_temperature;BMP_pressure;BME280_temperature;BME280_humidity;BME280_pressure;Samples;Min_cycle;Max_cycle;Signal;HPM_P1;HPM_P2
2023/10/20 00:00:16;;;;;;;59.03;22.30;;;7.60;99.90;;;;;;4969944;28;20053;-68
2023/10/20 00:02:42;;;;;;;54.10;20.85;;;7.60;99.90;;;;;;4968213;28;20042;-71
2023/10/20 00:05:09;;;;;;;58.22;22.67;;;7.40;99.90;;;;;;4979515;28;20128;-69
2023/10/20 00:07:35;;;;;;;63.20;24.02;;;7.60;99.90;;;;;;4969712;28;20068;-67
2023/10/20 00:10:00;;;;;;;78.00;24.05;;;7.70;99.90;;;;;;4965034;28;20061;-69
2023/10/20 00:12:26;;;;;;;63.75;22.95;;;7.60;99.90;;;;;;4968885;28;20084;-70
2023/10/20 00:14:52;;;;;;;59.85;22.20;;;7.70;99.90;;;;;;4951760;28;20035;-70
2023/10/20 00:17:19;;;;;;;67.60;22.80;;;7.70;99.90;;;;;;4966131;28;20050;-68
2023/10/20 00:19:45;;;;;;;67.95;24.23;;;7.60;99.90;;;;;;4971404;28;20447;-69
2023/10/20 00:22:11;;;;;;;76.15;25.70;;;7.70;99.90;;;;;;4968236;28;20116;-67
2023/10/20 00:24:36;;;;;;;77.88;26.80;;;7.60;99.90;;;;;;4976847;28;20041;-69
2023/10/20 00:27:03;;;;;;;79.88;28.20;;;7.60;99.90;;;;;;4950472;28;20087;-69
2023/10/20 00:29:28;;;;;;;71.50;25.38;;;7.50;99.90;;;;;;4973130;28;20041;-70
2023/10/20 00:31:54;;;;;;;94.65;26.80;;;7.40;99.90;;;;;;4962139;28;20034;-69
2023/10/20 00:34:20;;;;;;;91.47;28.58;;;7.60;99.90;;;;;;4967970;28;20178;-66
2023/10/20 00:36:45;;;;;;;85.40;27.30;;;7.70;99.90;;;;;;4966733;28;20061;-71
2023/10/20 00:39:12;;;;;;;84.07;28.48;;;7.40;99.90;;;;;;4962612;28;20034;-73
2023/10/20 00:41:38;;;;;;;93.78;30.38;;;7.40;99.90;;;;;;4963914;28;20485;-71
2023/10/20 00:44:04;;;;;;;123.30;31.23;;;7.40;99.90;;;;;;4966548;28;20157;-69
2023/10/20 00:46:30;;;;;;;86.93;29.23;;;7.70;99.90;;;;;;4973895;28;20474;-71
2023/10/20 00:48:57;;;;;;;86.63;28.83;;;7.60;99.90;;;;;;4975788;28;20053;-67
2023/10/20 00:51:27;;;;;;;116.63;31.27;;;7.60;99.90;;;;;;4956854;28;20057;-74
2023/10/20 00:53:55;;;;;;;87.45;28.10;;;7.50;99.90;;;;;;4963064;28;20038;-67
2023/10/20 00:56:21;;;;;;;98.18;31.60;;;7.40;99.90;;;;;;4965220;28;20042;-65
2023/10/20 00:58:47;;;;;;;114.00;32.33;;;7.40;99.90;;;;;;4961364;28;20048;-71
2023/10/20 01:01:13;;;;;;;114.93;32.70;;;7.70;99.90;;;;;;4962581;28;20058;-70
2023/10/20 01:03:39;;;;;;;113.13;31.35;;;7.60;99.90;;;;;;4964354;28;20105;-68
2023/10/20 01:06:05;;;;;;;97.57;31.02;;;7.70;99.90;;;;;;4971023;28;20125;-69
2023/10/20 01:08:31;;;;;;;119.05;31.95;;;7.40;99.90;;;;;;4969738;28;20054;-71
2023/10/20 01:10:56;;;;;;;105.03;31.33;;;7.40;99.90;;;;;;4959763;28;20087;-72
2023/10/20 01:13:22;;;;;;;113.35;33.13;;;7.40;99.90;;;;;;4978874;28;20077;-70
2023/10/20 01:15:49;;;;;;;115.30;31.73;;;7.40;99.90;;;;;;4962521;28;20056;-68
2023/10/20 01:18:14;;;;;;;103.88;31.90;;;7.50;99.90;;;;;;4969411;28;20132;-69
2023/10/20 01:20:40;;;;;;;118.53;32.88;;;7.70;99.90;;;;;;4959196;28;20078;-70
2023/10/20 01:23:06;;;;;;;83.53;26.33;;;7.60;99.90;;;;;;4982208;28;20046;-70
2023/10/20 01:25:32;;;;;;;91.50;27.85;;;7.60;99.90;;;;;;4966009;28;20045;-69
2023/10/20 01:27:58;;;;;;;98.05;28.60;;;7.40;99.90;;;;;;4969620;28;20062;-69
2023/10/20 01:30:25;;;;;;;88.72;28.92;;;7.60;99.90;;;;;;4967014;28;20038;-71
2023/10/20 01:32:51;;;;;;;81.47;28.05;;;7.40;99.90;;;;;;4976297;28;20475;-71
2023/10/20 01:35:16;;;;;;;91.60;27.80;;;7.40;99.90;;;;;;4971156;28;20039;-66
2023/10/20 01:37:42;;;;;;;118.53;30.30;;;7.60;99.90;;;;;;4963108;28;20038;-69
2023/10/20 01:40:09;;;;;;;90.47;28.85;;;7.40;99.90;;;;;;4978297;28;20113;-72
2023/10/20 01:42:35;;;;;;;87.55;29.30;;;7.40;99.90;;;;;;4964141;28;20114;-68
2023/10/20 01:45:02;;;;;;;112.82;30.90;;;7.50;99.90;;;;;;4978573;28;20049;-72
2023/10/20 01:47:28;;;;;;;86.95;27.63;;;7.60;99.90;;;;;;4959658;28;22729;-71
2023/10/20 01:49:55;;;;;;;76.25;27.08;;;7.40;99.90;;;;;;4958710;28;20050;-69
2023/10/20 01:52:20;;;;;;;78.00;27.55;;;7.30;99.90;;;;;;4981197;28;20034;-67
2023/10/20 01:54:46;;;;;;;136.50;34.30;;;7.60;99.90;;;;;;4995067;28;20422;-66
2023/10/20 01:57:12;;;;;;;95.80;30.30;;;7.60;99.90;;;;;;4976981;28;20484;-69
2023/10/20 01:59:38;;;;;;;101.22;32.90;;;7.50;99.90;;;;;;4973149;28;20034;-74
2023/10/20 02:02:04;;;;;;;90.10;30.58;;;7.40;99.90;;;;;;4983426;28;20766;-69
2023/10/20 02:04:30;;;;;;;84.13;29.30;;;7.60;99.90;;;;;;4973573;28;20636;-71
2023/10/20 02:06:56;;;;;;;93.93;30.13;;;7.40;99.90;;;;;;4970693;28;20093;-73
2023/10/20 02:09:25;;;;;;;98.30;29.50;;;7.70;99.90;;;;;;4971912;28;20043;-67
2023/10/20 02:11:51;;;;;;;110.80;32.20;;;7.70;99.90;;;;;;4971700;28;20039;-68
2023/10/20 02:14:17;;;;;;;82.00;27.90;;;7.50;99.90;;;;;;4956855;28;20409;-66
2023/10/20 02:16:43;;;;;;;93.43;28.70;;;7.50;99.90;;;;;;4956189;28;20038;-66
2023/10/20 02:19:10;;;;;;;92.90;27.88;;;7.40;99.90;;;;;;4966086;28;20113;-70
2023/10/20 02:21:36;;;;;;;85.97;28.10;;;7.60;99.90;;;;;;4980858;28;20047;-72
2023/10/20 02:24:03;;;;;;;73.20;25.55;;;7.70;99.90;;;;;;4966977;28;20394;-68
2023/10/20 02:26:28;;;;;;;73.80;26.30;;;7.40;99.90;;;;;;4964524;28;20204;-69
2023/10/20 02:28:54;;;;;;;70.78;23.95;;;7.60;99.90;;;;;;4963579;28;20481;-69
2023/10/20 02:31:20;;;;;;;72.82;24.40;;;7.40;99.90;;;;;;4962864;28;20527;-68
2023/10/20 02:33:46;;;;;;;65.60;23.80;;;7.70;99.90;;;;;;4966729;28;20479;-67
2023/10/20 02:36:19;;;;;;;74.28;24.67;;;7.40;99.90;;;;;;4966532;28;20053;-72
2023/10/20 02:38:47;;;;;;;72.45;23.92;;;7.40;99.90;;;;;;4956776;28;20043;-73
2023/10/20 02:41:16;;;;;;;73.38;24.35;;;7.40;99.90;;;;;;4965477;28;20031;-66
2023/10/20 02:43:41;;;;;;;63.05;22.90;;;7.60;99.90;;;;;;4958871;28;20047;-65
2023/10/20 02:46:08;;;;;;;59.50;22.25;;;7.40;99.90;;;;;;4952737;28;20105;-69
2023/10/20 02:48:34;;;;;;;61.50;23.63;;;7.50;99.90;;;;;;4959068;28;20070;-68
2023/10/20 02:51:14;;;;;;;61.15;22.60;;;7.50;99.90;;;;;;4974276;28;20110;-68
2023/10/20 02:53:40;;;;;;;53.93;20.83;;;7.60;99.90;;;;;;4960614;28;20035;-73
2023/10/20 02:56:13;;;;;;;50.33;20.92;;;7.40;99.90;;;;;;4976099;28;20309;-71
2023/10/20 02:58:40;;;;;;;71.90;23.83;;;7.60;99.90;;;;;;4939716;28;20129;-73
2023/10/20 03:01:09;;;;;;;62.00;22.98;;;7.40;99.90;;;;;;4940626;28;20035;-72
2023/10/20 03:03:35;;;;;;;61.10;21.88;;;7.60;99.90;;;;;;4965448;28;20045;-69
2023/10/20 03:06:03;;;;;;;51.28;20.40;;;7.40;99.90;;;;;;4965135;28;20082;-67
2023/10/20 03:08:29;;;;;;;62.25;22.52;;;7.60;99.90;;;;;;4961058;28;20046;-66
2023/10/20 03:10:56;;;;;;;58.05;22.63;;;7.50;99.90;;;;;;4960676;28;20126;-73
2023/10/20 03:13:23;;;;;;;63.42;21.30;;;7.60;99.90;;;;;;4966958;28;20039;-70
2023/10/20 03:15:50;;;;;;;58.35;23.27;;;7.40;99.90;;;;;;4957208;28;20490;-69
2023/10/20 03:18:16;;;;;;;74.28;23.88;;;7.40;99.90;;;;;;4963360;28;20041;-71
2023/10/20 03:20:47;;;;;;;64.55;21.95;;;7.70;99.90;;;;;;4913925;28;1378178;-66
2023/10/20 03:23:14;;;;;;;59.25;21.48;;;7.40;99.90;;;;;;4964531;28;20118;-72
2023/10/20 03:25:40;;;;;;;49.08;20.10;;;7.60;99.90;;;;;;4963285;28;21693;-68
2023/10/20 03:28:07;;;;;;;54.28;19.55;;;7.40;99.90;;;;;;4966730;28;20043;-66
2023/10/20 03:30:43;;;;;;;56.15;20.63;;;7.60;99.90;;;;;;4946784;28;20105;-68
2023/10/20 03:33:13;;;;;;;52.38;21.05;;;7.60;99.90;;;;;;4980910;28;20038;-67
2023/10/20 03:35:39;;;;;;;64.32;22.48;;;7.50;99.90;;;;;;4963923;28;20351;-70
2023/10/20 03:38:06;;;;;;;43.55;19.30;;;7.40;99.90;;;;;;4977793;28;20059;-68
2023/10/20 03:40:40;;;;;;;48.72;20.02;;;7.30;99.90;;;;;;4979345;28;20050;-65
2023/10/20 03:43:09;;;;;;;54.53;20.67;;;7.50;99.90;;;;;;4960341;28;20091;-69
2023/10/20 03:45:48;;;;;;;48.33;19.70;;;7.30;99.90;;;;;;4967707;28;20129;-72
2023/10/20 03:48:14;;;;;;;43.15;19.40;;;7.40;99.90;;;;;;4962967;28;20138;-67
2023/10/20 03:50:43;;;;;;;48.67;18.55;;;7.50;99.90;;;;;;4959531;28;20197;-69
2023/10/20 03:53:15;;;;;;;52.97;18.38;;;7.30;99.90;;;;;;4973034;28;20479;-68
2023/10/20 03:55:40;;;;;;;46.40;18.63;;;7.50;99.90;;;;;;4967050;28;20045;-66
2023/10/20 03:58:06;;;;;;;49.10;19.48;;;7.30;99.90;;;;;;4957108;28;20507;-70
2023/10/20 04:00:36;;;;;;;54.80;18.75;;;7.50;99.90;;;;;;4966007;28;20039;-71
2023/10/20 04:03:02;;;;;;;43.50;18.65;;;7.40;99.90;;;;;;4963557;28;20045;-70
2023/10/20 04:05:28;;;;;;;48.88;18.77;;;7.20;99.90;;;;;;4960690;28;20043;-69
2023/10/20 04:07:54;;;;;;;47.88;17.98;;;7.40;99.90;;;;;;4949335;28;20586;-65
2023/10/20 04:10:20;;;;;;;43.00;17.33;;;7.20;99.90;;;;;;4948710;28;20121;-70
2023/10/20 04:12:47;;;;;;;48.80;18.38;;;7.40;99.90;;;;;;4956792;28;20452;-71
2023/10/20 04:15:17;;;;;;;42.67;17.52;;;7.20;99.90;;;;;;4962504;28;20126;-72
2023/10/20 04:17:44;;;;;;;48.00;18.08;;;7.40;99.90;;;;;;4947820;28;20034;-70
2023/10/20 04:20:15;;;;;;;37.30;16.52;;;7.20;99.90;;;;;;4962799;28;20130;-69
2023/10/20 04:22:49;;;;;;;43.42;17.95;;;7.20;99.90;;;;;;4947496;28;20113;-73
2023/10/20 04:25:33;;;;;;;36.70;16.23;;;7.10;99.90;;;;;;4951125;28;20047;-67
2023/10/20 04:28:18;;;;;;;41.13;17.63;;;7.10;99.90;;;;;;4946791;28;20081;-73
2023/10/20 04:42:19;;;;;;;47.13;18.50;;;7.30;99.90;;;;;;4963795;28;20046;-68
2023/10/20 04:47:42;;;;;;;44.80;16.05;;;7.30;99.90;;;;;;4962858;28;20301;-66
2023/10/20 04:50:47;;;;;;;45.90;18.48;;;7.30;99.90;;;;;;4968068;28;20046;-69
2023/10/20 04:58:49;;;;;;;43.30;18.02;;;7.20;99.90;;;;;;4956901;28;20050;-72
2023/10/20 05:01:27;;;;;;;40.05;17.80;;;7.30;99.90;;;;;;4960128;28;20038;-69
2023/10/20 05:03:56;;;;;;;40.47;17.45;;;7.30;99.90;;;;;;4954335;28;20051;-67
2023/10/20 05:06:43;;;;;;;38.33;16.08;;;7.00;99.90;;;;;;4966178;28;20109;-70
2023/10/20 05:09:12;;;;;;;41.63;17.80;;;7.10;99.90;;;;;;4962458;28;20054;-70
2023/10/20 05:11:39;;;;;;;;;;;7.20;99.90;;;;;;4958414;28;20149;-66
2023/10/20 05:14:05;;;;;;;37.58;16.25;;;7.30;99.90;;;;;;4959967;28;20461;-68
2023/10/20 05:16:33;;;;;;;36.70;18.02;;;7.10;99.90;;;;;;4970722;28;20070;-72
2023/10/20 05:19:02;;;;;;;36.92;16.67;;;7.10;99.90;;;;;;4964327;28;20043;-70
2023/10/20 05:21:28;;;;;;;39.25;16.77;;;7.10;99.90;;;;;;4960765;28;20402;-67
2023/10/20 05:23:54;;;;;;;37.00;16.50;;;7.20;99.90;;;;;;4977352;28;20053;-69
2023/10/20 05:26:21;;;;;;;38.90;16.35;;;7.00;99.90;;;;;;4939980;28;20062;-71
2023/10/20 05:28:46;;;;;;;33.22;16.33;;;7.20;99.90;;;;;;4939988;28;20178;-71
2023/10/20 05:31:12;;;;;;;30.65;15.38;;;7.20;99.90;;;;;;4943649;28;20035;-71
2023/10/20 05:33:38;;;;;;;34.35;15.52;;;7.10;99.90;;;;;;4960729;28;20125;-71
2023/10/20 05:36:04;;;;;;;35.75;14.95;;;7.20;99.90;;;;;;4956070;28;20035;-71
2023/10/20 05:38:29;;;;;;;32.78;14.50;;;7.20;99.90;;;;;;4967042;28;20146;-66
2023/10/20 05:40:58;;;;;;;27.10;13.25;;;7.10;99.90;;;;;;4962205;28;20487;-69
2023/10/20 05:43:24;;;;;;;26.45;13.85;;;7.00;99.90;;;;;;4967477;28;20886;-68
2023/10/20 05:45:50;;;;;;;26.88;13.48;;;7.20;99.90;;;;;;4963338;28;20129;-69
2023/10/20 05:48:16;;;;;;;26.63;13.10;;;7.20;99.90;;;;;;4970232;28;20732;-70
2023/10/20 05:50:42;;;;;;;25.08;12.82;;;7.20;99.90;;;;;;4969426;28;20042;-71
2023/10/20 05:53:08;;;;;;;22.55;13.07;;;7.10;99.90;;;;;;4983181;28;20039;-71
2023/10/20 05:55:34;;;;;;;24.00;11.55;;;7.10;99.90;;;;;;4983853;28;20039;-66
2023/10/20 05:58:00;;;;;;;29.38;13.48;;;7.10;99.90;;;;;;4974592;28;20182;-72
2023/10/20 06:00:26;;;;;;;24.70;11.98;;;7.20;99.90;;;;;;4959987;28;20097;-73
2023/10/20 06:02:52;;;;;;;22.75;12.02;;;7.10;99.90;;;;;;4965693;28;20070;-74
2023/10/20 06:05:18;;;;;;;26.50;12.85;;;7.00;99.90;;;;;;4965100;28;20076;-71
2023/10/20 06:07:44;;;;;;;19.05;11.13;;;7.00;99.90;;;;;;4968926;28;20118;-71
2023/10/20 06:10:13;;;;;;;25.40;11.85;;;7.10;99.90;;;;;;4972327;28;20142;-71
2023/10/20 06:12:39;;;;;;;19.30;11.25;;;7.00;99.90;;;;;;4968796;28;20042;-73
2023/10/20 06:15:08;;;;;;;16.98;10.20;;;7.10;99.90;;;;;;4967449;28;20049;-71
2023/10/20 06:17:34;;;;;;;18.67;10.20;;;7.10;99.90;;;;;;4965099;28;20424;-70
2023/10/20 06:20:04;;;;;;;21.60;10.55;;;7.10;99.90;;;;;;4969757;28;20047;-73
2023/10/20 06:22:33;;;;;;;15.77;9.50;;;7.10;99.90;;;;;;4950818;28;20088;-72
2023/10/20 06:24:59;;;;;;;18.30;9.95;;;7.10;99.90;;;;;;4968603;28;20046;-71
2023/10/20 06:27:25;;;;;;;18.65;9.52;;;7.20;99.90;;;;;;4951025;28;20116;-66
2023/10/20 06:30:06;;;;;;;19.63;10.23;;;7.20;99.90;;;;;;4965116;28;20043;-72
2023/10/20 06:32:42;;;;;;;16.92;9.43;;;7.10;99.90;;;;;;4961187;28;20371;-76
2023/10/20 06:35:16;;;;;;;16.90;8.77;;;7.10;99.90;;;;;;4980756;28;20042;-70
2023/10/20 06:40:17;;;;;;;15.85;8.63;;;7.10;99.90;;;;;;4966547;28;20054;-71
2023/10/20 06:42:44;;;;;;;18.02;9.45;;;7.10;99.90;;;;;;4973497;28;20137;-72
2023/10/20 06:45:13;;;;;;;16.65;8.95;;;7.10;99.90;;;;;;4966315;28;20058;-68
2023/10/20 06:47:42;;;;;;;16.33;9.00;;;7.20;99.90;;;;;;4977143;28;20050;-77
2023/10/20 06:50:10;;;;;;;14.07;8.07;;;7.20;99.90;;;;;;4965725;28;20586;-73
2023/10/20 06:52:36;;;;;;;13.98;7.68;;;7.20;99.90;;;;;;4966792;28;20672;-71
2023/10/20 06:55:05;;;;;;;13.90;8.13;;;7.20;99.90;;;;;;4968396;28;20173;-78
2023/10/20 06:57:31;;;;;;;15.85;8.23;;;7.20;99.90;;;;;;4963977;28;20057;-71
2023/10/20 06:59:57;;;;;;;12.90;7.38;;;7.20;99.90;;;;;;4952552;28;20042;-75
2023/10/20 07:02:22;;;;;;;13.93;7.60;;;7.20;99.90;;;;;;4964376;28;20777;-69
2023/10/20 07:04:48;;;;;;;14.55;7.43;;;7.30;99.90;;;;;;4968474;28;20138;-74
2023/10/20 07:07:15;;;;;;;10.18;6.25;;;7.20;99.90;;;;;;4965660;28;20914;-71
2023/10/20 07:09:41;;;;;;;11.90;7.15;;;7.20;99.90;;;;;;4967713;28;20050;-75
2023/10/20 07:12:07;;;;;;;14.20;7.63;;;7.20;99.90;;;;;;4964303;28;20043;-76
2023/10/20 07:14:38;;;;;;;9.90;7.20;;;7.20;99.90;;;;;;4971753;28;20451;-74
2023/10/20 07:17:06;;;;;;;10.80;7.03;;;7.20;99.90;;;;;;4964305;28;20173;-73
2023/10/20 07:19:33;;;;;;;10.65;7.00;;;7.20;99.90;;;;;;4969278;28;20621;-76
2023/10/20 07:22:00;;;;;;;12.57;7.30;;;7.20;99.90;;;;;;4971369;28;20105;-74
2023/10/20 07:24:26;;;;;;;9.65;5.75;;;7.30;99.90;;;;;;4972819;28;20116;-76
2023/10/20 07:26:52;;;;;;;16.15;7.35;;;7.30;99.90;;;;;;4969593;28;20046;-73
2023/10/20 07:29:18;;;;;;;12.52;6.85;;;7.20;99.90;;;;;;4956464;28;20129;-70
2023/10/20 07:31:47;;;;;;;15.70;6.93;;;7.20;99.90;;;;;;4949426;28;20114;-74
2023/10/20 07:34:16;;;;;;;17.48;7.20;;;7.20;99.90;;;;;;4970218;28;20046;-70
2023/10/20 07:36:42;;;;;;;13.82;7.50;;;7.20;99.90;;;;;;4974139;28;20098;-71
2023/10/20 07:39:08;;;;;;;11.63;7.03;;;7.20;99.90;;;;;;4997805;28;20043;-67
2023/10/20 07:41:35;;;;;;;12.70;7.10;;;7.20;99.90;;;;;;4982553;28;20174;-71
2023/10/20 07:44:04;;;;;;;13.70;6.80;;;7.20;99.90;;;;;;4971138;28;20053;-76
2023/10/20 07:46:31;;;;;;;14.00;6.40;;;7.20;99.90;;;;;;4949879;28;20064;-74
2023/10/20 07:48:57;;;;;;;11.88;5.30;;;7.20;99.90;;;;;;4971105;28;20045;-70
2023/10/20 07:51:22;;;;;;;11.00;5.93;;;7.20;99.90;;;;;;4973938;28;20039;-71
2023/10/20 07:53:48;;;;;;;9.25;5.20;;;7.20;99.90;;;;;;4970133;28;20092;-71
2023/10/20 07:56:14;;;;;;;7.18;5.15;;;7.10;99.90;;;;;;4975283;28;20093;-72
2023/10/20 07:58:39;;;;;;;15.85;6.32;;;7.10;99.90;;;;;;4970890;28;20042;-70
2023/10/20 08:01:06;;;;;;;7.97;4.43;;;7.10;99.90;;;;;;4967288;28;20050;-71
2023/10/20 08:03:32;;;;;;;9.50;4.72;;;7.00;99.90;;;;;;4970029;28;20104;-68
2023/10/20 08:06:03;;;;;;;7.50;4.18;;;7.10;99.90;;;;;;4953044;28;20045;-71
2023/10/20 08:08:29;;;;;;;6.10;3.83;;;7.10;99.90;;;;;;4984317;28;20382;-71
2023/10/20 08:10:55;;;;;;;7.85;4.20;;;7.10;99.90;;;;;;4962763;28;20386;-70
2023/10/20 08:13:21;;;;;;;8.73;3.90;;;7.10;99.90;;;;;;4983318;28;20490;-72
2023/10/20 08:15:46;;;;;;;7.07;3.95;;;7.00;99.90;;;;;;4967500;28;20076;-72
2023/10/20 08:18:12;;;;;;;6.55;3.78;;;7.00;99.90;;;;;;4967464;28;20509;-69
2023/10/20 08:20:38;;;;;;;9.05;4.18;;;7.00;99.90;;;;;;4966836;28;20149;-68
2023/10/20 08:23:04;;;;;;;6.93;4.10;;;6.90;99.90;;;;;;4969192;28;20046;-70
2023/10/20 08:25:30;;;;;;;7.18;3.72;;;7.00;99.90;;;;;;4942153;28;20048;-68
2023/10/20 08:27:55;;;;;;;8.52;4.00;;;6.90;99.90;;;;;;4958259;28;20497;-68
2023/10/20 08:30:21;;;;;;;5.50;3.35;;;6.90;99.90;;;;;;4967154;28;20097;-71
2023/10/20 08:32:47;;;;;;;7.43;3.35;;;7.00;99.90;;;;;;4951573;28;20129;-69
2023/10/20 08:35:14;;;;;;;6.25;3.42;;;6.90;99.90;;;;;;4991995;28;20034;-71
2023/10/20 08:37:40;;;;;;;6.05;2.88;;;6.80;99.90;;;;;;4969671;28;20031;-70
2023/10/20 08:40:12;;;;;;;4.47;2.67;;;6.90;99.90;;;;;;4968813;28;20117;-67
2023/10/20 08:42:38;;;;;;;5.38;2.58;;;6.80;99.90;;;;;;4975733;28;20046;-71
2023/10/20 08:45:07;;;;;;;6.20;3.05;;;6.80;99.90;;;;;;4971629;28;20048;-68
2023/10/20 08:47:33;;;;;;;4.82;2.70;;;6.80;99.90;;;;;;4949751;28;20042;-74
2023/10/20 08:49:59;;;;;;;4.65;2.50;;;6.70;99.90;;;;;;4971973;28;20072;-68
2023/10/20 08:52:25;;;;;;;4.60;2.63;;;6.80;99.90;;;;;;4973872;28;20108;-71
2023/10/20 08:54:52;;;;;;;3.72;2.58;;;6.70;99.90;;;;;;4970185;28;20188;-68
2023/10/20 08:57:18;;;;;;;3.78;2.67;;;6.80;99.90;;;;;;4968240;28;20065;-71
2023/10/20 08:59:53;;;;;;;5.88;2.35;;;6.70;99.90;;;;;;4972120;28;20124;-70
2023/10/20 09:02:18;;;;;;;4.13;2.50;;;6.70;99.90;;;;;;4984944;28;20058;-70
2023/10/20 09:04:51;;;;;;;4.95;2.95;;;6.70;99.90;;;;;;4967451;28;20690;-71
2023/10/20 09:07:16;;;;;;;3.25;2.30;;;6.70;99.90;;;;;;4987294;28;20373;-71
2023/10/20 09:09:43;;;;;;;6.05;3.17;;;6.70;99.90;;;;;;4968405;28;20031;-68
2023/10/20 09:12:11;;;;;;;4.18;2.70;;;6.80;99.90;;;;;;4967914;28;20080;-68
2023/10/20 09:14:39;;;;;;;3.80;2.65;;;6.70;99.90;;;;;;4982947;28;20076;-70
2023/10/20 09:17:05;;;;;;;4.30;2.72;;;6.80;99.90;;;;;;4999627;28;20046;-67
2023/10/20 09:19:31;;;;;;;3.67;2.50;;;6.60;99.90;;;;;;4979077;28;20126;-69
2023/10/20 09:21:57;;;;;;;4.72;2.60;;;6.70;99.90;;;;;;4973173;28;20088;-71
2023/10/20 09:24:29;;;;;;;4.57;2.80;;;6.70;99.90;;;;;;4967897;28;20046;-67
2023/10/20 09:26:56;;;;;;;3.95;2.05;;;6.70;99.90;;;;;;4955765;28;20042;-70
2023/10/20 09:29:22;;;;;;;5.72;2.38;;;6.60;99.90;;;;;;4970680;28;20473;-68
2023/10/20 09:31:49;;;;;;;3.38;1.95;;;6.60;99.90;;;;;;4967697;28;20043;-69
2023/10/20 09:34:15;;;;;;;2.60;1.80;;;6.60;99.90;;;;;;4976889;28;20631;-70
2023/10/20 09:36:45;;;;;;;5.15;2.05;;;6.50;99.90;;;;;;4961482;28;20217;-65
2023/10/20 09:39:19;;;;;;;2.08;1.73;;;6.50;99.90;;;;;;4978273;28;20062;-66
2023/10/20 09:41:50;;;;;;;3.28;2.17;;;6.60;99.90;;;;;;4971102;28;20050;-65
2023/10/20 09:44:33;;;;;;;4.10;2.20;;;6.50;99.90;;;;;;4979525;28;20441;-69
2023/10/20 09:47:19;;;;;;;4.95;2.20;;;6.50;99.90;;;;;;4969022;28;20518;-63
2023/10/20 09:49:46;;;;;;;4.13;2.10;;;6.60;99.90;;;;;;4980999;28;20045;-67
2023/10/20 09:52:11;;;;;;;2.83;1.90;;;6.50;99.90;;;;;;4986151;28;20042;-66
2023/10/20 09:54:37;;;;;;;3.40;2.00;;;6.50;99.90;;;;;;4974170;28;20327;-68
2023/10/20 09:57:05;;;;;;;2.85;1.85;;;6.60;99.90;;;;;;4963845;28;20034;-68
2023/10/20 09:59:31;;;;;;;5.43;1.95;;;6.70;99.90;;;;;;4971253;28;20070;-66
2023/10/20 10:02:01;;;;;;;3.15;1.52;;;6.60;99.90;;;;;;4976242;28;20128;-67
2023/10/20 10:04:30;;;;;;;2.33;1.60;;;6.60;99.90;;;;;;4960482;28;20050;-67
2023/10/20 10:07:03;;;;;;;2.83;1.45;;;6.50;99.90;;;;;;4959140;28;20568;-70
2023/10/20 10:09:52;;;;;;;2.30;1.50;;;6.50;99.90;;;;;;4957014;28;20105;-64
2023/10/20 10:12:20;;;;;;;3.42;1.52;;;6.30;99.90;;;;;;4965389;28;20761;-71
2023/10/20 10:15:01;;;;;;;1.33;1.23;;;6.30;99.90;;;;;;4972139;28;20153;-72
2023/10/20 10:17:27;;;;;;;4.53;1.70;;;6.40;99.90;;;;;;4976966;28;20402;-65
2023/10/20 10:19:54;;;;;;;2.65;1.33;;;6.20;99.90;;;;;;4969439;28;20098;-67
2023/10/20 10:22:29;;;;;;;1.95;1.55;;;6.20;99.90;;;;;;4949648;28;20038;-69
2023/10/20 10:25:00;;;;;;;2.83;1.73;;;6.20;99.90;;;;;;4967525;28;20432;-69
2023/10/20 10:27:28;;;;;;;2.80;1.67;;;6.40;99.90;;;;;;4988564;28;20054;-68
2023/10/20 10:30:05;;;;;;;2.92;1.77;;;6.20;99.90;;;;;;4972859;28;20122;-67
2023/10/20 10:32:31;;;;;;;2.53;1.70;;;6.40;99.90;;;;;;4989115;28;20506;-66
2023/10/20 10:34:58;;;;;;;3.03;2.15;;;6.20;99.90;;;;;;4972918;28;20045;-69
2023/10/20 10:37:37;;;;;;;1.88;1.42;;;6.20;99.90;;;;;;4974432;28;20073;-70
2023/10/20 10:40:10;;;;;;;2.25;1.20;;;6.50;99.90;;;;;;4971859;28;20364;-67
2023/10/20 10:42:45;;;;;;;2.30;1.00;;;6.50;99.90;;;;;;4976233;28;20121;-70
2023/10/20 10:45:27;;;;;;;1.60;1.02;;;6.10;99.90;;;;;;4972566;28;20312;-66
2023/10/20 10:48:09;;;;;;;2.03;1.33;;;6.20;99.90;;;;;;4971694;28;20117;-71
2023/10/20 10:50:47;;;;;;;2.70;1.10;;;6.40;99.90;;;;;;4971455;28;20393;-69
2023/10/20 10:53:14;;;;;;;2.35;1.02;;;6.40;99.90;;;;;;4971089;28;20504;-73
2023/10/20 10:55:43;;;;;;;3.90;1.10;;;6.20;99.90;;;;;;4971133;28;20073;-71
2023/10/20 10:58:12;;;;;;;1.17;1.00;;;6.50;99.90;;;;;;4987758;28;20049;-73
2023/10/20 11:00:39;;;;;;;2.47;0.95;;;6.20;99.90;;;;;;4971016;28;20325;-66
2023/10/20 11:03:06;;;;;;;1.05;0.70;;;6.40;99.90;;;;;;4972868;28;20402;-69
2023/10/20 11:05:35;;;;;;;2.45;1.88;;;6.30;99.90;;;;;;4971676;28;20541;-67
2023/10/20 11:08:09;;;;;;;1.52;1.00;;;6.40;99.90;;;;;;4952404;28;20065;-70
2023/10/20 11:10:45;;;;;;;1.23;0.70;;;6.00;99.90;;;;;;4973248;28;20070;-71
2023/10/20 11:13:13;;;;;;;1.25;0.70;;;6.40;99.90;;;;;;4990758;28;20121;-66
2023/10/20 11:15:40;;;;;;;1.48;1.10;;;6.10;99.90;;;;;;4971795;28;20112;-68
2023/10/20 11:18:07;;;;;;;1.55;1.00;;;6.50;99.90;;;;;;4974692;28;20042;-69
2023/10/20 11:20:36;;;;;;;1.75;1.30;;;6.40;99.90;;;;;;4974246;28;20047;-69
2023/10/20 11:23:04;;;;;;;2.55;1.40;;;6.50;99.90;;;;;;4974001;28;20042;-72
2023/10/20 11:25:29;;;;;;;2.05;1.10;;;6.10;99.90;;;;;;4974434;28;20132;-68
2023/10/20 11:27:56;;;;;;;1.02;0.85;;;6.20;99.90;;;;;;4987247;28;20074;-69
2023/10/20 11:30:34;;;;;;;1.45;0.90;;;6.50;99.90;;;;;;4961926;28;20164;-70
2023/10/20 11:33:00;;;;;;;1.42;1.00;;;6.10;99.90;;;;;;4968438;28;20057;-71
2023/10/20 11:35:27;;;;;;;1.42;0.90;;;6.20;99.90;;;;;;4945881;28;20220;-70
2023/10/20 11:38:00;;;;;;;2.40;1.02;;;6.30;99.90;;;;;;4953631;28;20461;-79
2023/10/20 11:40:26;;;;;;;2.45;0.90;;;6.10;99.90;;;;;;4984089;28;20173;-70
2023/10/20 11:42:53;;;;;;;1.05;0.93;;;6.10;99.90;;;;;;4973461;28;20049;-72
2023/10/20 11:45:22;;;;;;;2.28;1.00;;;6.50;99.90;;;;;;4971664;28;20068;-70
2023/10/20 11:47:48;;;;;;;1.80;0.98;;;6.50;99.90;;;;;;4972104;28;20050;-70
2023/10/20 11:50:15;;;;;;;2.47;1.30;;;6.10;99.90;;;;;;4972776;28;20050;-72
2023/10/20 11:52:42;;;;;;;1.98;1.00;;;6.20;99.90;;;;;;4971668;28;20347;-72
2023/10/20 11:55:09;;;;;;;2.53;1.00;;;6.50;99.90;;;;;;4972061;28;20109;-70
2023/10/20 11:57:35;;;;;;;1.08;0.98;;;6.50;99.90;;;;;;4969919;28;20046;-72
2023/10/20 12:00:07;;;;;;;3.22;1.10;;;6.20;99.90;;;;;;4983543;28;20046;-69
2023/10/20 12:02:33;;;;;;;1.98;0.77;;;6.50;99.90;;;;;;4974210;28;20050;-75
2023/10/20 12:05:00;;;;;;;3.85;1.00;;;6.10;99.90;;;;;;4984447;28;20049;-69
2023/10/20 12:07:26;;;;;;;2.85;1.23;;;6.10;99.90;;;;;;4972685;28;20121;-71
2023/10/20 12:09:51;;;;;;;1.25;0.82;;;6.10;99.90;;;;;;4978552;28;20185;-68
2023/10/20 12:12:17;;;;;;;1.55;1.20;;;6.20;99.90;;;;;;4957780;28;20041;-72
2023/10/20 12:14:44;;;;;;;4.32;1.20;;;6.40;99.90;;;;;;4959247;28;20035;-69
2023/10/20 12:17:10;;;;;;;1.25;0.80;;;6.40;99.90;;;;;;4969077;28;20470;-70
2023/10/20 12:19:36;;;;;;;5.43;1.85;;;6.10;99.90;;;;;;4964476;28;20042;-71
2023/10/20 12:22:01;;;;;;;1.00;0.90;;;6.40;99.90;;;;;;4975227;28;20030;-75
2023/10/20 12:24:27;;;;;;;1.40;0.80;;;6.30;99.90;;;;;;4972772;28;20471;-71
2023/10/20 12:26:55;;;;;;;2.35;0.80;;;6.20;99.90;;;;;;4971394;28;20038;-70
2023/10/20 12:29:22;;;;;;;1.48;0.80;;;6.10;99.90;;;;;;4972897;28;20046;-73
2023/10/20 12:31:51;;;;;;;2.10;1.95;;;6.20;99.90;;;;;;4968041;28;20120;-70
2023/10/20 12:34:17;;;;;;;2.33;0.80;;;6.50;99.90;;;;;;4955351;28;20046;-74
2023/10/20 12:36:42;;;;;;;1.23;0.63;;;6.00;99.90;;;;;;4969798;28;20689;-79
2023/10/20 12:39:09;;;;;;;1.08;0.82;;;6.40;99.90;;;;;;4982635;28;20138;-73
2023/10/20 12:41:35;;;;;;;2.10;0.80;;;6.40;99.90;;;;;;4968782;28;20088;-70
2023/10/20 12:44:02;;;;;;;1.48;0.70;;;6.10;99.90;;;;;;4968408;28;20050;-68
2023/10/20 12:46:28;;;;;;;1.33;0.73;;;6.40;99.90;;;;;;4968528;28;20042;-72
2023/10/20 12:48:54;;;;;;;1.20;0.85;;;6.20;99.90;;;;;;4971160;28;20068;-70
2023/10/20 12:51:19;;;;;;;1.90;0.60;;;6.50;99.90;;;;;;4975721;28;20042;-72
2023/10/20 12:53:45;;;;;;;1.08;0.70;;;6.20;99.90;;;;;;4985560;28;20074;-68
2023/10/20 12:56:11;;;;;;;0.60;0.60;;;6.40;99.90;;;;;;4965571;28;20505;-73
2023/10/20 12:58:36;;;;;;;1.17;0.80;;;6.10;99.90;;;;;;4954249;28;20093;-71
2023/10/20 13:01:02;;;;;;;1.17;0.80;;;6.20;99.90;;;;;;4949317;28;20030;-71
2023/10/20 13:03:28;;;;;;;1.30;0.63;;;6.20;99.90;;;;;;4970110;28;20506;-73
2023/10/20 13:05:54;;;;;;;1.45;0.95;;;6.30;99.90;;;;;;4973537;28;20046;-72
2023/10/20 13:08:20;;;;;;;0.80;0.73;;;6.20;99.90;;;;;;4972239;28;20149;-69
2023/10/20 13:10:47;;;;;;;1.00;0.80;;;6.10;99.90;;;;;;4986985;28;20156;-72